Terminal Aerodrome Forecast
Issued by NWS

Home | Current Version | Previous Version | Text Only | Print | Product List | Glossary On
Versions: 1 2 3 4 5 6 7 8 9 10 11 12 13 14 15 16 17 18 19 20 21 22
000
FTUS43 KDLH 262300
TAFHIB
TAF
KHIB 262339Z 2700/2724 VRB04KT P6SM OVC140
      TEMPO 2704/2708 5SM BR
     FM270800 VRB02KT 4SM BR SCT090 BKN160
      TEMPO 2709/2712 2SM BR
     FM271400 31008KT P6SM SCT030
     FM271900 29009G13KT P6SM VCTS SCT060CB=

USA.gov is the U.S. government's official web portal to all federal, state and local government web resources and services.